sensor_id;sensor_type;location;lat;lon;timestamp;P1;durP1;ratioP1;P2;durP2;ratioP2
68655;SDS011;55638;51.122;13.606;2022-07-29T00:00:12;0.98;;;0.50;;
68655;SDS011;55638;51.122;13.606;2022-07-29T00:01:45;1.20;;;0.75;;
68655;SDS011;55638;51.122;13.606;2022-07-29T00:03:16;1.00;;;0.60;;
68655;SDS011;55638;51.122;13.606;2022-07-29T00:04:48;1.75;;;0.60;;
68655;SDS011;55638;51.122;13.606;2022-07-29T00:06:20;1.50;;;0.75;;
68655;SDS011;55638;51.122;13.606;2022-07-29T00:07:52;1.60;;;0.65;;
68655;SDS011;55638;51.122;13.606;2022-07-29T00:09:23;2.60;;;1.02;;
68655;SDS011;55638;51.122;13.606;2022-07-29T00:10:55;2.72;;;0.82;;
68655;SDS011;55638;51.122;13.606;2022-07-29T00:12:27;2.20;;;0.75;;
68655;SDS011;55638;51.122;13.606;2022-07-29T00:14:00;2.95;;;1.20;;
68655;SDS011;55638;51.122;13.606;2022-07-29T00:15:31;2.08;;;0.70;;
68655;SDS011;55638;51.122;13.606;2022-07-29T00:17:03;1.80;;;0.75;;
68655;SDS011;55638;51.122;13.606;2022-07-29T00:18:35;1.50;;;0.70;;
68655;SDS011;55638;51.122;13.606;2022-07-29T00:20:06;2.15;;;0.70;;
68655;SDS011;55638;51.122;13.606;2022-07-29T00:21:39;1.23;;;0.75;;
68655;SDS011;55638;51.122;13.606;2022-07-29T00:23:10;1.95;;;0.60;;
68655;SDS011;55638;51.122;13.606;2022-07-29T00:24:44;1.23;;;0.68;;
68655;SDS011;55638;51.122;13.606;2022-07-29T00:26:15;1.52;;;0.82;;
68655;SDS011;55638;51.122;13.606;2022-07-29T00:27:47;1.33;;;0.70;;
68655;SDS011;55638;51.122;13.606;2022-07-29T00:29:19;2.72;;;0.80;;
68655;SDS011;55638;51.122;13.606;2022-07-29T00:31:06;2.40;;;0.90;;
68655;SDS011;55638;51.122;13.606;2022-07-29T00:32:37;1.60;;;0.60;;
68655;SDS011;55638;51.122;13.606;2022-07-29T00:34:09;1.63;;;0.70;;
68655;SDS011;55638;51.122;13.606;2022-07-29T00:36:01;2.65;;;0.70;;
68655;SDS011;55638;51.122;13.606;2022-07-29T00:37:32;2.92;;;0.98;;
68655;SDS011;55638;51.122;13.606;2022-07-29T00:39:04;1.90;;;0.70;;
68655;SDS011;55638;51.122;13.606;2022-07-29T00:40:36;1.02;;;0.57;;
68655;SDS011;55638;51.122;13.606;2022-07-29T00:42:14;1.27;;;0.63;;
68655;SDS011;55638;51.122;13.606;2022-07-29T00:43:47;0.82;;;0.50;;
68655;SDS011;55638;51.122;13.606;2022-07-29T00:45:19;2.33;;;0.70;;
68655;SDS011;55638;51.122;13.606;2022-07-29T00:46:51;1.35;;;0.70;;
68655;SDS011;55638;51.122;13.606;2022-07-29T00:48:23;2.08;;;0.70;;
68655;SDS011;55638;51.122;13.606;2022-07-29T00:49:54;1.13;;;0.52;;
68655;SDS011;55638;51.122;13.606;2022-07-29T00:51:26;1.75;;;0.50;;
68655;SDS011;55638;51.122;13.606;2022-07-29T00:52:58;1.13;;;0.65;;
68655;SDS011;55638;51.122;13.606;2022-07-29T00:54:30;2.35;;;0.73;;
68655;SDS011;55638;51.122;13.606;2022-07-29T00:56:03;1.00;;;0.70;;
68655;SDS011;55638;51.122;13.606;2022-07-29T00:57:35;1.20;;;0.60;;
68655;SDS011;55638;51.122;13.606;2022-07-29T00:59:07;1.33;;;0.70;;
68655;SDS011;55638;51.122;13.606;2022-07-29T01:00:39;0.88;;;0.52;;
68655;SDS011;55638;51.122;13.606;2022-07-29T01:02:12;1.20;;;0.60;;
68655;SDS011;55638;51.122;13.606;2022-07-29T01:03:44;0.60;;;0.50;;
68655;SDS011;55638;51.122;13.606;2022-07-29T01:05:19;1.60;;;0.70;;
68655;SDS011;55638;51.122;13.606;2022-07-29T01:06:52;1.10;;;0.75;;
68655;SDS011;55638;51.122;13.606;2022-07-29T01:08:25;1.10;;;0.70;;
68655;SDS011;55638;51.122;13.606;2022-07-29T01:09:57;1.20;;;0.60;;
68655;SDS011;55638;51.122;13.606;2022-07-29T01:11:30;1.45;;;0.70;;
68655;SDS011;55638;51.122;13.606;2022-07-29T01:13:02;1.65;;;0.75;;
68655;SDS011;55638;51.122;13.606;2022-07-29T01:14:38;2.42;;;0.68;;
68655;SDS011;55638;51.122;13.606;2022-07-29T01:16:21;1.85;;;0.70;;
68655;SDS011;55638;51.122;13.606;2022-07-29T01:18:11;1.50;;;0.70;;
68655;SDS011;55638;51.122;13.606;2022-07-29T01:19:56;2.17;;;0.88;;
68655;SDS011;55638;51.122;13.606;2022-07-29T01:21:53;1.13;;;0.60;;
68655;SDS011;55638;51.122;13.606;2022-07-29T01:25:44;1.20;;;0.60;;
68655;SDS011;55638;51.122;13.606;2022-07-29T01:29:51;2.38;;;0.60;;
68655;SDS011;55638;51.122;13.606;2022-07-29T01:31:33;1.00;;;0.57;;
68655;SDS011;55638;51.122;13.606;2022-07-29T01:33:33;4.35;;;0.77;;
68655;SDS011;55638;51.122;13.606;2022-07-29T01:35:25;2.92;;;0.90;;
68655;SDS011;55638;51.122;13.606;2022-07-29T01:37:15;3.17;;;1.10;;
68655;SDS011;55638;51.122;13.606;2022-07-29T01:38:55;1.33;;;0.70;;
68655;SDS011;55638;51.122;13.606;2022-07-29T01:40:34;1.52;;;0.50;;
68655;SDS011;55638;51.122;13.606;2022-07-29T01:44:17;1.25;;;0.70;;
68655;SDS011;55638;51.122;13.606;2022-07-29T01:45:53;1.88;;;0.75;;
68655;SDS011;55638;51.122;13.606;2022-07-29T01:47:33;0.88;;;0.65;;
68655;SDS011;55638;51.122;13.606;2022-07-29T01:49:14;0.82;;;0.60;;
68655;SDS011;55638;51.122;13.606;2022-07-29T01:50:49;1.50;;;0.80;;
68655;SDS011;55638;51.122;13.606;2022-07-29T01:52:26;2.42;;;0.80;;
68655;SDS011;55638;51.122;13.606;2022-07-29T01:54:30;1.70;;;0.90;;
68655;SDS011;55638;51.122;13.606;2022-07-29T01:56:07;2.53;;;0.80;;
68655;SDS011;55638;51.122;13.606;2022-07-29T01:57:45;1.00;;;0.70;;
68655;SDS011;55638;51.122;13.606;2022-07-29T01:59:20;1.95;;;0.75;;
68655;SDS011;55638;51.122;13.606;2022-07-29T02:00:52;1.23;;;0.73;;
68655;SDS011;55638;51.122;13.606;2022-07-29T02:02:27;1.50;;;0.68;;
68655;SDS011;55638;51.122;13.606;2022-07-29T02:04:02;1.58;;;0.60;;
68655;SDS011;55638;51.122;13.606;2022-07-29T02:05:35;1.38;;;0.68;;
68655;SDS011;55638;51.122;13.606;2022-07-29T02:07:10;2.33;;;0.73;;
68655;SDS011;55638;51.122;13.606;2022-07-29T02:08:45;2.00;;;1.10;;
68655;SDS011;55638;51.122;13.606;2022-07-29T02:10:20;2.08;;;0.70;;
68655;SDS011;55638;51.122;13.606;2022-07-29T02:11:56;1.55;;;0.85;;
68655;SDS011;55638;51.122;13.606;2022-07-29T02:13:30;3.92;;;0.90;;
68655;SDS011;55638;51.122;13.606;2022-07-29T02:15:05;1.75;;;0.70;;
68655;SDS011;55638;51.122;13.606;2022-07-29T02:16:41;1.48;;;0.68;;
68655;SDS011;55638;51.122;13.606;2022-07-29T02:18:15;1.02;;;0.68;;
68655;SDS011;55638;51.122;13.606;2022-07-29T02:19:49;1.55;;;0.80;;
68655;SDS011;55638;51.122;13.606;2022-07-29T02:21:24;2.03;;;0.70;;
68655;SDS011;55638;51.122;13.606;2022-07-29T02:22:58;2.28;;;0.75;;
68655;SDS011;55638;51.122;13.606;2022-07-29T02:24:32;1.95;;;0.70;;
68655;SDS011;55638;51.122;13.606;2022-07-29T02:26:04;2.33;;;1.00;;
68655;SDS011;55638;51.122;13.606;2022-07-29T02:27:38;0.90;;;0.60;;
68655;SDS011;55638;51.122;13.606;2022-07-29T02:29:12;1.48;;;0.93;;
68655;SDS011;55638;51.122;13.606;2022-07-29T02:30:46;1.77;;;0.98;;
68655;SDS011;55638;51.122;13.606;2022-07-29T02:32:19;2.45;;;0.80;;
68655;SDS011;55638;51.122;13.606;2022-07-29T02:33:54;1.30;;;0.80;;
68655;SDS011;55638;51.122;13.606;2022-07-29T02:35:28;1.95;;;0.85;;
68655;SDS011;55638;51.122;13.606;2022-07-29T02:37:05;1.55;;;0.70;;
68655;SDS011;55638;51.122;13.606;2022-07-29T02:38:38;2.70;;;0.90;;
68655;SDS011;55638;51.122;13.606;2022-07-29T02:40:22;1.33;;;0.93;;
68655;SDS011;55638;51.122;13.606;2022-07-29T02:41:55;2.78;;;1.20;;
68655;SDS011;55638;51.122;13.606;2022-07-29T02:43:32;1.10;;;0.85;;
68655;SDS011;55638;51.122;13.606;2022-07-29T02:45:06;1.58;;;0.82;;
68655;SDS011;55638;51.122;13.606;2022-07-29T02:46:41;2.65;;;0.93;;
68655;SDS011;55638;51.122;13.606;2022-07-29T02:48:16;1.80;;;0.90;;
68655;SDS011;55638;51.122;13.606;2022-07-29T02:51:46;1.60;;;0.80;;
68655;SDS011;55638;51.122;13.606;2022-07-29T02:53:24;1.10;;;0.60;;
68655;SDS011;55638;51.122;13.606;2022-07-29T02:56:53;1.55;;;0.80;;
68655;SDS011;55638;51.122;13.606;2022-07-29T02:58:30;2.83;;;0.90;;
68655;SDS011;55638;51.122;13.606;2022-07-29T03:00:09;1.70;;;0.90;;
68655;SDS011;55638;51.122;13.606;2022-07-29T03:01:43;2.95;;;1.00;;
68655;SDS011;55638;51.122;13.606;2022-07-29T03:03:17;1.75;;;0.80;;
68655;SDS011;55638;51.122;13.606;2022-07-29T03:04:50;1.33;;;1.05;;
68655;SDS011;55638;51.122;13.606;2022-07-29T03:06:24;1.63;;;0.90;;
68655;SDS011;55638;51.122;13.606;2022-07-29T03:08:09;1.25;;;0.85;;
68655;SDS011;55638;51.122;13.606;2022-07-29T03:09:43;1.90;;;0.88;;
68655;SDS011;55638;51.122;13.606;2022-07-29T03:11:16;3.97;;;0.98;;
68655;SDS011;55638;51.122;13.606;2022-07-29T03:12:48;2.10;;;0.95;;
68655;SDS011;55638;51.122;13.606;2022-07-29T03:14:20;2.17;;;1.05;;
68655;SDS011;55638;51.122;13.606;2022-07-29T03:15:52;2.10;;;0.90;;
68655;SDS011;55638;51.122;13.606;2022-07-29T03:17:25;1.65;;;0.95;;
68655;SDS011;55638;51.122;13.606;2022-07-29T03:18:56;1.35;;;0.77;;
68655;SDS011;55638;51.122;13.606;2022-07-29T03:20:29;1.73;;;0.90;;
68655;SDS011;55638;51.122;13.606;2022-07-29T03:22:01;1.98;;;1.10;;
68655;SDS011;55638;51.122;13.606;2022-07-29T03:23:32;1.48;;;1.10;;
68655;SDS011;55638;51.122;13.606;2022-07-29T03:25:07;2.65;;;1.02;;
68655;SDS011;55638;51.122;13.606;2022-07-29T03:26:40;3.00;;;0.90;;
68655;SDS011;55638;51.122;13.606;2022-07-29T03:28:12;2.97;;;1.30;;
68655;SDS011;55638;51.122;13.606;2022-07-29T03:29:46;1.67;;;1.15;;
68655;SDS011;55638;51.122;13.606;2022-07-29T03:31:20;3.42;;;1.20;;
68655;SDS011;55638;51.122;13.606;2022-07-29T03:32:52;2.65;;;1.08;;
68655;SDS011;55638;51.122;13.606;2022-07-29T03:34:26;3.53;;;1.52;;
68655;SDS011;55638;51.122;13.606;2022-07-29T03:35:58;3.15;;;1.33;;
68655;SDS011;55638;51.122;13.606;2022-07-29T03:37:30;2.25;;;1.40;;
68655;SDS011;55638;51.122;13.606;2022-07-29T03:39:02;2.25;;;1.48;;
68655;SDS011;55638;51.122;13.606;2022-07-29T03:40:51;2.75;;;1.42;;
68655;SDS011;55638;51.122;13.606;2022-07-29T03:42:28;2.33;;;1.50;;
68655;SDS011;55638;51.122;13.606;2022-07-29T03:44:05;3.22;;;1.60;;
68655;SDS011;55638;51.122;13.606;2022-07-29T03:45:38;2.38;;;1.40;;
68655;SDS011;55638;51.122;13.606;2022-07-29T03:47:14;1.92;;;1.52;;
68655;SDS011;55638;51.122;13.606;2022-07-29T03:48:52;2.35;;;1.52;;
68655;SDS011;55638;51.122;13.606;2022-07-29T03:50:29;3.30;;;1.45;;
68655;SDS011;55638;51.122;13.606;2022-07-29T03:52:04;3.08;;;1.40;;
68655;SDS011;55638;51.122;13.606;2022-07-29T03:53:36;2.58;;;1.27;;
68655;SDS011;55638;51.122;13.606;2022-07-29T03:55:09;2.70;;;1.50;;
68655;SDS011;55638;51.122;13.606;2022-07-29T03:56:42;2.15;;;1.25;;
68655;SDS011;55638;51.122;13.606;2022-07-29T03:58:18;2.63;;;1.42;;
68655;SDS011;55638;51.122;13.606;2022-07-29T03:59:51;2.38;;;1.40;;
68655;SDS011;55638;51.122;13.606;2022-07-29T04:01:23;3.55;;;1.45;;
68655;SDS011;55638;51.122;13.606;2022-07-29T04:02:56;2.50;;;1.40;;
68655;SDS011;55638;51.122;13.606;2022-07-29T04:04:29;2.33;;;1.10;;
68655;SDS011;55638;51.122;13.606;2022-07-29T04:06:05;5.00;;;1.60;;
68655;SDS011;55638;51.122;13.606;2022-07-29T04:07:37;3.10;;;1.30;;
68655;SDS011;55638;51.122;13.606;2022-07-29T04:09:09;2.33;;;1.27;;
68655;SDS011;55638;51.122;13.606;2022-07-29T04:10:41;2.92;;;1.60;;
68655;SDS011;55638;51.122;13.606;2022-07-29T04:12:13;2.70;;;1.70;;
68655;SDS011;55638;51.122;13.606;2022-07-29T04:13:44;4.30;;;1.70;;
68655;SDS011;55638;51.122;13.606;2022-07-29T04:15:16;2.20;;;1.60;;
68655;SDS011;55638;51.122;13.606;2022-07-29T04:16:48;3.13;;;1.80;;
68655;SDS011;55638;51.122;13.606;2022-07-29T04:18:19;3.08;;;2.40;;
68655;SDS011;55638;51.122;13.606;2022-07-29T04:19:51;3.90;;;2.38;;
68655;SDS011;55638;51.122;13.606;2022-07-29T04:21:23;2.53;;;1.92;;
68655;SDS011;55638;51.122;13.606;2022-07-29T04:22:54;2.92;;;2.05;;
68655;SDS011;55638;51.122;13.606;2022-07-29T04:24:26;3.15;;;1.90;;
68655;SDS011;55638;51.122;13.606;2022-07-29T04:25:58;3.88;;;2.17;;
68655;SDS011;55638;51.122;13.606;2022-07-29T04:27:32;3.55;;;1.85;;
68655;SDS011;55638;51.122;13.606;2022-07-29T04:29:03;3.60;;;2.00;;
68655;SDS011;55638;51.122;13.606;2022-07-29T04:30:36;2.70;;;2.00;;
68655;SDS011;55638;51.122;13.606;2022-07-29T04:32:08;4.72;;;2.10;;
68655;SDS011;55638;51.122;13.606;2022-07-29T04:33:40;3.75;;;2.03;;
68655;SDS011;55638;51.122;13.606;2022-07-29T04:35:11;3.95;;;2.10;;
68655;SDS011;55638;51.122;13.606;2022-07-29T04:36:43;4.60;;;1.98;;
68655;SDS011;55638;51.122;13.606;2022-07-29T04:38:15;4.32;;;1.92;;
68655;SDS011;55638;51.122;13.606;2022-07-29T04:39:47;3.65;;;2.00;;
68655;SDS011;55638;51.122;13.606;2022-07-29T04:41:19;2.80;;;1.80;;
68655;SDS011;55638;51.122;13.606;2022-07-29T04:42:51;5.07;;;1.92;;
68655;SDS011;55638;51.122;13.606;2022-07-29T04:44:24;3.38;;;1.73;;
68655;SDS011;55638;51.122;13.606;2022-07-29T04:45:59;3.88;;;1.48;;
68655;SDS011;55638;51.122;13.606;2022-07-29T04:47:31;2.97;;;1.77;;
68655;SDS011;55638;51.122;13.606;2022-07-29T04:49:03;2.08;;;1.65;;
68655;SDS011;55638;51.122;13.606;2022-07-29T04:50:37;3.50;;;1.60;;
68655;SDS011;55638;51.122;13.606;2022-07-29T04:52:09;4.40;;;2.83;;
68655;SDS011;55638;51.122;13.606;2022-07-29T04:53:41;4.57;;;3.08;;
68655;SDS011;55638;51.122;13.606;2022-07-29T04:55:13;4.40;;;3.30;;
68655;SDS011;55638;51.122;13.606;2022-07-29T04:56:45;4.53;;;3.28;;
68655;SDS011;55638;51.122;13.606;2022-07-29T04:58:18;5.55;;;3.58;;
68655;SDS011;55638;51.122;13.606;2022-07-29T04:59:49;3.70;;;3.28;;
68655;SDS011;55638;51.122;13.606;2022-07-29T05:01:21;4.03;;;3.33;;
68655;SDS011;55638;51.122;13.606;2022-07-29T05:02:53;4.60;;;3.00;;
68655;SDS011;55638;51.122;13.606;2022-07-29T05:04:25;6.60;;;3.42;;
68655;SDS011;55638;51.122;13.606;2022-07-29T05:05:56;5.93;;;3.15;;
68655;SDS011;55638;51.122;13.606;2022-07-29T05:07:28;4.70;;;2.63;;
68655;SDS011;55638;51.122;13.606;2022-07-29T05:08:59;6.00;;;3.15;;
68655;SDS011;55638;51.122;13.606;2022-07-29T05:10:31;3.78;;;2.67;;
68655;SDS011;55638;51.122;13.606;2022-07-29T05:12:03;3.97;;;2.58;;
68655;SDS011;55638;51.122;13.606;2022-07-29T05:13:35;3.20;;;2.50;;
68655;SDS011;55638;51.122;13.606;2022-07-29T05:16:49;4.65;;;2.03;;
68655;SDS011;55638;51.122;13.606;2022-07-29T05:18:22;4.60;;;2.15;;
68655;SDS011;55638;51.122;13.606;2022-07-29T05:19:56;3.17;;;2.20;;
68655;SDS011;55638;51.122;13.606;2022-07-29T05:21:28;3.78;;;2.50;;
68655;SDS011;55638;51.122;13.606;2022-07-29T05:23:00;3.97;;;2.72;;
68655;SDS011;55638;51.122;13.606;2022-07-29T05:24:32;4.45;;;2.78;;
68655;SDS011;55638;51.122;13.606;2022-07-29T05:26:04;5.47;;;3.00;;
68655;SDS011;55638;51.122;13.606;2022-07-29T05:27:36;5.00;;;3.13;;
68655;SDS011;55638;51.122;13.606;2022-07-29T05:29:08;5.18;;;2.90;;
68655;SDS011;55638;51.122;13.606;2022-07-29T05:31:00;4.63;;;2.97;;
68655;SDS011;55638;51.122;13.606;2022-07-29T05:32:32;5.10;;;2.75;;
68655;SDS011;55638;51.122;13.606;2022-07-29T05:34:03;5.95;;;3.00;;
68655;SDS011;55638;51.122;13.606;2022-07-29T05:35:35;2.95;;;2.47;;
68655;SDS011;55638;51.122;13.606;2022-07-29T05:37:08;7.20;;;3.22;;
68655;SDS011;55638;51.122;13.606;2022-07-29T05:38:40;9.10;;;3.30;;
68655;SDS011;55638;51.122;13.606;2022-07-29T05:40:11;4.47;;;3.10;;
68655;SDS011;55638;51.122;13.606;2022-07-29T05:41:43;5.85;;;3.22;;
68655;SDS011;55638;51.122;13.606;2022-07-29T05:43:21;5.57;;;3.92;;
68655;SDS011;55638;51.122;13.606;2022-07-29T05:44:53;8.25;;;4.65;;
68655;SDS011;55638;51.122;13.606;2022-07-29T05:46:25;9.07;;;5.30;;
68655;SDS011;55638;51.122;13.606;2022-07-29T05:47:57;7.82;;;4.88;;
68655;SDS011;55638;51.122;13.606;2022-07-29T05:49:28;7.43;;;5.25;;
68655;SDS011;55638;51.122;13.606;2022-07-29T05:51:00;8.18;;;5.95;;
68655;SDS011;55638;51.122;13.606;2022-07-29T05:52:32;8.40;;;6.13;;
68655;SDS011;55638;51.122;13.606;2022-07-29T05:54:03;9.70;;;6.70;;
68655;SDS011;55638;51.122;13.606;2022-07-29T05:55:35;7.43;;;5.78;;
68655;SDS011;55638;51.122;13.606;2022-07-29T05:57:15;10.25;;;7.13;;
68655;SDS011;55638;51.122;13.606;2022-07-29T06:00:22;12.10;;;6.80;;
68655;SDS011;55638;51.122;13.606;2022-07-29T06:01:54;8.52;;;6.60;;
68655;SDS011;55638;51.122;13.606;2022-07-29T06:03:26;10.05;;;7.20;;
68655;SDS011;55638;51.122;13.606;2022-07-29T06:04:57;8.48;;;6.65;;
68655;SDS011;55638;51.122;13.606;2022-07-29T06:06:30;10.10;;;6.88;;
68655;SDS011;55638;51.122;13.606;2022-07-29T06:08:01;11.25;;;6.78;;
68655;SDS011;55638;51.122;13.606;2022-07-29T06:09:33;8.88;;;6.68;;
68655;SDS011;55638;51.122;13.606;2022-07-29T06:11:06;9.60;;;6.88;;
68655;SDS011;55638;51.122;13.606;2022-07-29T06:12:39;10.15;;;6.15;;
68655;SDS011;55638;51.122;13.606;2022-07-29T06:14:11;10.07;;;6.43;;
68655;SDS011;55638;51.122;13.606;2022-07-29T06:15:43;9.85;;;7.32;;
68655;SDS011;55638;51.122;13.606;2022-07-29T06:17:16;11.38;;;8.15;;
68655;SDS011;55638;51.122;13.606;2022-07-29T06:18:48;10.10;;;8.23;;
68655;SDS011;55638;51.122;13.606;2022-07-29T06:20:20;11.45;;;8.43;;
68655;SDS011;55638;51.122;13.606;2022-07-29T06:21:57;11.93;;;7.95;;
68655;SDS011;55638;51.122;13.606;2022-07-29T06:23:29;11.32;;;8.38;;
68655;SDS011;55638;51.122;13.606;2022-07-29T06:25:01;12.02;;;8.45;;
68655;SDS011;55638;51.122;13.606;2022-07-29T06:26:33;11.23;;;8.55;;
68655;SDS011;55638;51.122;13.606;2022-07-29T06:28:10;11.15;;;8.40;;
68655;SDS011;55638;51.122;13.606;2022-07-29T06:29:42;10.52;;;7.97;;
68655;SDS011;55638;51.122;13.606;2022-07-29T06:31:13;13.77;;;7.93;;
68655;SDS011;55638;51.122;13.606;2022-07-29T06:32:45;10.23;;;7.95;;
68655;SDS011;55638;51.122;13.606;2022-07-29T06:34:17;10.07;;;7.75;;
68655;SDS011;55638;51.122;13.606;2022-07-29T06:35:51;11.23;;;7.60;;
68655;SDS011;55638;51.122;13.606;2022-07-29T06:37:24;10.52;;;7.72;;
68655;SDS011;55638;51.122;13.606;2022-07-29T06:38:58;11.25;;;7.03;;
68655;SDS011;55638;51.122;13.606;2022-07-29T06:40:31;13.00;;;7.05;;
68655;SDS011;55638;51.122;13.606;2022-07-29T06:42:21;8.18;;;6.13;;
68655;SDS011;55638;51.122;13.606;2022-07-29T06:43:53;8.57;;;6.07;;
68655;SDS011;55638;51.122;13.606;2022-07-29T06:45:27;7.95;;;5.93;;
68655;SDS011;55638;51.122;13.606;2022-07-29T06:46:59;7.88;;;6.13;;
68655;SDS011;55638;51.122;13.606;2022-07-29T06:48:32;9.73;;;6.35;;
68655;SDS011;55638;51.122;13.606;2022-07-29T06:50:04;8.80;;;6.28;;
68655;SDS011;55638;51.122;13.606;2022-07-29T06:51:38;7.38;;;5.90;;
68655;SDS011;55638;51.122;13.606;2022-07-29T06:53:09;10.50;;;6.68;;
68655;SDS011;55638;51.122;13.606;2022-07-29T06:54:41;9.65;;;7.15;;
68655;SDS011;55638;51.122;13.606;2022-07-29T06:56:19;8.35;;;6.47;;
68655;SDS011;55638;51.122;13.606;2022-07-29T06:57:50;9.25;;;6.70;;
68655;SDS011;55638;51.122;13.606;2022-07-29T06:59:22;11.23;;;6.60;;
68655;SDS011;55638;51.122;13.606;2022-07-29T07:01:05;9.35;;;6.50;;
68655;SDS011;55638;51.122;13.606;2022-07-29T07:02:38;9.20;;;6.65;;
68655;SDS011;55638;51.122;13.606;2022-07-29T07:04:10;9.07;;;5.85;;
68655;SDS011;55638;51.122;13.606;2022-07-29T07:05:42;8.77;;;6.45;;
68655;SDS011;55638;51.122;13.606;2022-07-29T07:07:15;9.02;;;6.07;;
68655;SDS011;55638;51.122;13.606;2022-07-29T07:08:48;9.90;;;6.38;;
68655;SDS011;55638;51.122;13.606;2022-07-29T07:10:19;9.63;;;6.80;;
68655;SDS011;55638;51.122;13.606;2022-07-29T07:11:51;8.82;;;6.43;;
68655;SDS011;55638;51.122;13.606;2022-07-29T07:13:23;8.57;;;6.22;;
68655;SDS011;55638;51.122;13.606;2022-07-29T07:14:55;10.40;;;6.63;;
68655;SDS011;55638;51.122;13.606;2022-07-29T07:16:26;7.20;;;6.13;;
68655;SDS011;55638;51.122;13.606;2022-07-29T07:17:58;9.70;;;6.60;;
68655;SDS011;55638;51.122;13.606;2022-07-29T07:19:30;10.18;;;6.50;;
68655;SDS011;55638;51.122;13.606;2022-07-29T07:21:02;9.18;;;6.32;;
68655;SDS011;55638;51.122;13.606;2022-07-29T07:22:36;9.30;;;6.28;;
68655;SDS011;55638;51.122;13.606;2022-07-29T07:24:09;11.25;;;5.88;;
68655;SDS011;55638;51.122;13.606;2022-07-29T07:25:41;10.23;;;6.45;;
68655;SDS011;55638;51.122;13.606;2022-07-29T07:27:13;7.80;;;5.60;;
68655;SDS011;55638;51.122;13.606;2022-07-29T07:28:44;8.25;;;6.15;;
68655;SDS011;55638;51.122;13.606;2022-07-29T07:30:16;8.60;;;6.22;;
68655;SDS011;55638;51.122;13.606;2022-07-29T07:31:48;8.52;;;6.00;;
68655;SDS011;55638;51.122;13.606;2022-07-29T07:33:20;11.43;;;5.95;;
68655;SDS011;55638;51.122;13.606;2022-07-29T07:34:51;9.95;;;6.00;;
68655;SDS011;55638;51.122;13.606;2022-07-29T07:36:23;7.13;;;5.63;;
68655;SDS011;55638;51.122;13.606;2022-07-29T07:37:55;9.75;;;6.50;;
68655;SDS011;55638;51.122;13.606;2022-07-29T07:39:27;10.15;;;6.07;;
68655;SDS011;55638;51.122;13.606;2022-07-29T07:40:59;9.50;;;5.93;;
68655;SDS011;55638;51.122;13.606;2022-07-29T07:42:31;8.20;;;5.78;;
68655;SDS011;55638;51.122;13.606;2022-07-29T07:44:03;8.63;;;6.03;;
68655;SDS011;55638;51.122;13.606;2022-07-29T07:45:35;9.60;;;6.10;;
68655;SDS011;55638;51.122;13.606;2022-07-29T07:47:08;7.20;;;5.75;;
68655;SDS011;55638;51.122;13.606;2022-07-29T07:48:43;9.85;;;5.63;;
68655;SDS011;55638;51.122;13.606;2022-07-29T07:50:14;9.30;;;6.32;;
68655;SDS011;55638;51.122;13.606;2022-07-29T07:51:49;7.97;;;5.97;;
68655;SDS011;55638;51.122;13.606;2022-07-29T07:53:21;8.77;;;5.60;;
68655;SDS011;55638;51.122;13.606;2022-07-29T07:54:53;7.28;;;5.90;;
68655;SDS011;55638;51.122;13.606;2022-07-29T07:56:25;8.35;;;6.07;;
68655;SDS011;55638;51.122;13.606;2022-07-29T07:57:59;9.88;;;6.47;;
68655;SDS011;55638;51.122;13.606;2022-07-29T07:59:31;9.60;;;6.32;;
68655;SDS011;55638;51.122;13.606;2022-07-29T08:01:03;9.25;;;5.82;;
68655;SDS011;55638;51.122;13.606;2022-07-29T08:02:35;6.72;;;5.65;;
68655;SDS011;55638;51.122;13.606;2022-07-29T08:04:06;10.90;;;6.53;;
68655;SDS011;55638;51.122;13.606;2022-07-29T08:05:40;8.73;;;5.47;;
68655;SDS011;55638;51.122;13.606;2022-07-29T08:07:12;8.88;;;6.43;;
68655;SDS011;55638;51.122;13.606;2022-07-29T08:08:46;8.00;;;5.75;;
68655;SDS011;55638;51.122;13.606;2022-07-29T08:10:18;8.18;;;6.05;;
68655;SDS011;55638;51.122;13.606;2022-07-29T08:12:09;8.20;;;5.30;;
68655;SDS011;55638;51.122;13.606;2022-07-29T08:13:41;7.05;;;5.82;;
68655;SDS011;55638;51.122;13.606;2022-07-29T08:15:14;9.60;;;5.75;;
68655;SDS011;55638;51.122;13.606;2022-07-29T08:16:45;9.32;;;5.63;;
68655;SDS011;55638;51.122;13.606;2022-07-29T08:18:17;8.80;;;6.53;;
68655;SDS011;55638;51.122;13.606;2022-07-29T08:19:49;9.40;;;6.05;;
68655;SDS011;55638;51.122;13.606;2022-07-29T08:21:21;7.88;;;5.88;;
68655;SDS011;55638;51.122;13.606;2022-07-29T08:22:52;8.95;;;6.00;;
68655;SDS011;55638;51.122;13.606;2022-07-29T08:24:24;8.07;;;5.88;;
68655;SDS011;55638;51.122;13.606;2022-07-29T08:26:14;7.95;;;5.80;;
68655;SDS011;55638;51.122;13.606;2022-07-29T08:27:47;7.43;;;5.65;;
68655;SDS011;55638;51.122;13.606;2022-07-29T08:29:18;8.48;;;6.20;;
68655;SDS011;55638;51.122;13.606;2022-07-29T08:30:50;9.93;;;5.70;;
68655;SDS011;55638;51.122;13.606;2022-07-29T08:32:22;10.32;;;6.45;;
68655;SDS011;55638;51.122;13.606;2022-07-29T08:34:14;7.80;;;6.07;;
68655;SDS011;55638;51.122;13.606;2022-07-29T08:35:45;8.75;;;6.00;;
68655;SDS011;55638;51.122;13.606;2022-07-29T08:37:17;9.32;;;6.10;;
68655;SDS011;55638;51.122;13.606;2022-07-29T08:38:49;8.07;;;6.43;;
68655;SDS011;55638;51.122;13.606;2022-07-29T08:40:23;10.05;;;5.93;;
68655;SDS011;55638;51.122;13.606;2022-07-29T08:42:03;8.85;;;5.65;;
68655;SDS011;55638;51.122;13.606;2022-07-29T08:43:34;9.70;;;6.05;;
68655;SDS011;55638;51.122;13.606;2022-07-29T08:45:09;8.70;;;5.90;;
68655;SDS011;55638;51.122;13.606;2022-07-29T08:46:40;9.10;;;5.88;;
68655;SDS011;55638;51.122;13.606;2022-07-29T08:48:13;8.75;;;5.50;;
68655;SDS011;55638;51.122;13.606;2022-07-29T08:49:46;7.68;;;5.80;;
68655;SDS011;55638;51.122;13.606;2022-07-29T08:51:20;9.65;;;6.35;;
68655;SDS011;55638;51.122;13.606;2022-07-29T08:52:52;10.80;;;6.00;;
68655;SDS011;55638;51.122;13.606;2022-07-29T08:54:30;8.20;;;5.80;;
68655;SDS011;55638;51.122;13.606;2022-07-29T08:56:02;7.93;;;5.55;;
68655;SDS011;55638;51.122;13.606;2022-07-29T08:57:34;11.00;;;6.75;;
68655;SDS011;55638;51.122;13.606;2022-07-29T08:59:07;6.82;;;5.15;;
68655;SDS011;55638;51.122;13.606;2022-07-29T09:00:44;8.13;;;5.88;;
68655;SDS011;55638;51.122;13.606;2022-07-29T09:02:22;8.20;;;5.68;;
68655;SDS011;55638;51.122;13.606;2022-07-29T09:03:54;7.78;;;5.40;;
68655;SDS011;55638;51.122;13.606;2022-07-29T09:05:28;8.50;;;5.50;;
68655;SDS011;55638;51.122;13.606;2022-07-29T09:07:00;10.13;;;5.80;;
68655;SDS011;55638;51.122;13.606;2022-07-29T09:08:37;8.07;;;6.28;;
68655;SDS011;55638;51.122;13.606;2022-07-29T09:10:08;7.55;;;5.65;;
68655;SDS011;55638;51.122;13.606;2022-07-29T09:11:41;9.75;;;5.95;;
68655;SDS011;55638;51.122;13.606;2022-07-29T09:13:13;8.55;;;5.63;;
68655;SDS011;55638;51.122;13.606;2022-07-29T09:14:45;8.55;;;5.88;;
68655;SDS011;55638;51.122;13.606;2022-07-29T09:16:17;8.38;;;5.78;;
68655;SDS011;55638;51.122;13.606;2022-07-29T09:18:09;8.85;;;5.97;;
68655;SDS011;55638;51.122;13.606;2022-07-29T09:20:15;10.32;;;6.22;;
68655;SDS011;55638;51.122;13.606;2022-07-29T09:21:49;8.55;;;5.90;;
68655;SDS011;55638;51.122;13.606;2022-07-29T09:23:30;8.93;;;6.03;;
68655;SDS011;55638;51.122;13.606;2022-07-29T09:25:01;8.27;;;5.88;;
68655;SDS011;55638;51.122;13.606;2022-07-29T09:26:35;8.85;;;5.82;;
68655;SDS011;55638;51.122;13.606;2022-07-29T09:28:17;7.43;;;5.20;;
68655;SDS011;55638;51.122;13.606;2022-07-29T09:29:56;7.65;;;5.18;;
68655;SDS011;55638;51.122;13.606;2022-07-29T09:31:37;6.20;;;4.78;;